Weather at Maria Cristina Airport

Public forecast

Using degrees Celsius for public forecast. Weather courtesy of forecast.io.

Closest aviation weather report (METAR) to Maria Cristina Airport

Report is more than 6 hours old.

Closest report is Cagayan De Oro Airport, 29.1 nm (53.9 km) NE. Retrieved 2021/02/07 03:00 UTC (2 years ago):

RPML 070300Z 36004KT 9999 SCT020 BKN300 32/23 Q1014 NOSIG RMK A2994

Closest aviation forecast (TAF) to Maria Cristina Airport

Forecast is more than 12 hours old.

Closest forecast is Cagayan De Oro Airport, 29.1 nm (53.9 km) NE. Retrieved 2013/10/16 12:12 UTC (9 years ago):

TAF RPML 161100Z 1612/1712 34005KT 9999 FEW018 SCT080 TEMPO 1612/1618 02003KT 8000 -RA FEW017CB SCT018 BKN080